sensor_id;sensor_type;location;lat;lon;timestamp;P1;durP1;ratioP1;P2;durP2;ratioP2
36253;SDS011;22291;52.250;21.228;2022-09-28T00:01:09;25.17;;;15.55;;
36253;SDS011;22291;52.250;21.228;2022-09-28T00:03:42;20.77;;;14.28;;
36253;SDS011;22291;52.250;21.228;2022-09-28T00:06:11;27.73;;;16.20;;
36253;SDS011;22291;52.250;21.228;2022-09-28T00:08:40;24.30;;;15.60;;
36253;SDS011;22291;52.250;21.228;2022-09-28T00:11:07;26.82;;;16.95;;
36253;SDS011;22291;52.250;21.228;2022-09-28T00:13:38;25.45;;;17.27;;
36253;SDS011;22291;52.250;21.228;2022-09-28T00:16:07;26.40;;;16.60;;
36253;SDS011;22291;52.250;21.228;2022-09-28T00:18:38;28.87;;;17.80;;
36253;SDS011;22291;52.250;21.228;2022-09-28T00:21:07;25.92;;;16.70;;
36253;SDS011;22291;52.250;21.228;2022-09-28T00:23:37;23.20;;;15.98;;
36253;SDS011;22291;52.250;21.228;2022-09-28T00:26:06;23.38;;;15.68;;
36253;SDS011;22291;52.250;21.228;2022-09-28T00:28:32;23.47;;;14.85;;
36253;SDS011;22291;52.250;21.228;2022-09-28T00:30:58;27.90;;;16.60;;
36253;SDS011;22291;52.250;21.228;2022-09-28T00:33:25;23.05;;;15.05;;
36253;SDS011;22291;52.250;21.228;2022-09-28T00:35:55;21.37;;;13.35;;
36253;SDS011;22291;52.250;21.228;2022-09-28T00:38:26;21.35;;;14.53;;
36253;SDS011;22291;52.250;21.228;2022-09-28T00:40:54;22.48;;;13.80;;
36253;SDS011;22291;52.250;21.228;2022-09-28T00:43:20;20.37;;;13.68;;
36253;SDS011;22291;52.250;21.228;2022-09-28T00:45:52;17.73;;;12.90;;
36253;SDS011;22291;52.250;21.228;2022-09-28T00:48:23;17.87;;;12.47;;
36253;SDS011;22291;52.250;21.228;2022-09-28T00:50:54;18.02;;;12.13;;
36253;SDS011;22291;52.250;21.228;2022-09-28T00:53:24;17.90;;;11.03;;
36253;SDS011;22291;52.250;21.228;2022-09-28T00:55:55;16.82;;;10.15;;
36253;SDS011;22291;52.250;21.228;2022-09-28T00:58:32;12.80;;;9.05;;
36253;SDS011;22291;52.250;21.228;2022-09-28T01:01:04;10.58;;;7.20;;
36253;SDS011;22291;52.250;21.228;2022-09-28T01:03:31;9.10;;;5.95;;
36253;SDS011;22291;52.250;21.228;2022-09-28T01:05:59;9.73;;;5.85;;
36253;SDS011;22291;52.250;21.228;2022-09-28T01:10:56;7.25;;;4.30;;
36253;SDS011;22291;52.250;21.228;2022-09-28T01:13:24;5.50;;;3.85;;
36253;SDS011;22291;52.250;21.228;2022-09-28T01:16:00;4.75;;;3.10;;
36253;SDS011;22291;52.250;21.228;2022-09-28T01:21:26;3.60;;;2.30;;
36253;SDS011;22291;52.250;21.228;2022-09-28T01:27:23;4.20;;;2.70;;
36253;SDS011;22291;52.250;21.228;2022-09-28T01:30:03;5.00;;;2.30;;
36253;SDS011;22291;52.250;21.228;2022-09-28T01:32:50;3.37;;;2.12;;
36253;SDS011;22291;52.250;21.228;2022-09-28T01:35:36;3.15;;;1.95;;
36253;SDS011;22291;52.250;21.228;2022-09-28T01:40:58;3.67;;;2.20;;
36253;SDS011;22291;52.250;21.228;2022-09-28T01:43:26;3.45;;;2.33;;
36253;SDS011;22291;52.250;21.228;2022-09-28T01:45:59;3.62;;;2.87;;
36253;SDS011;22291;52.250;21.228;2022-09-28T01:48:42;3.45;;;2.15;;
36253;SDS011;22291;52.250;21.228;2022-09-28T01:51:33;3.58;;;2.60;;
36253;SDS011;22291;52.250;21.228;2022-09-28T01:54:13;4.67;;;2.85;;
36253;SDS011;22291;52.250;21.228;2022-09-28T01:56:53;4.42;;;2.90;;
36253;SDS011;22291;52.250;21.228;2022-09-28T01:59:31;7.72;;;3.00;;
36253;SDS011;22291;52.250;21.228;2022-09-28T02:02:06;3.12;;;2.62;;
36253;SDS011;22291;52.250;21.228;2022-09-28T02:04:50;3.90;;;2.70;;
36253;SDS011;22291;52.250;21.228;2022-09-28T02:07:25;3.92;;;3.00;;
36253;SDS011;22291;52.250;21.228;2022-09-28T02:09:59;4.67;;;2.70;;
36253;SDS011;22291;52.250;21.228;2022-09-28T02:12:33;5.03;;;2.20;;
36253;SDS011;22291;52.250;21.228;2022-09-28T02:15:10;2.62;;;1.95;;
36253;SDS011;22291;52.250;21.228;2022-09-28T02:17:43;2.35;;;2.08;;
36253;SDS011;22291;52.250;21.228;2022-09-28T02:20:10;3.52;;;2.40;;
36253;SDS011;22291;52.250;21.228;2022-09-28T02:22:44;3.15;;;2.15;;
36253;SDS011;22291;52.250;21.228;2022-09-28T02:25:21;5.33;;;2.80;;
36253;SDS011;22291;52.250;21.228;2022-09-28T02:27:57;3.27;;;2.33;;
36253;SDS011;22291;52.250;21.228;2022-09-28T02:30:26;4.70;;;2.20;;
36253;SDS011;22291;52.250;21.228;2022-09-28T02:32:56;3.85;;;2.58;;
36253;SDS011;22291;52.250;21.228;2022-09-28T02:35:30;2.83;;;2.20;;
36253;SDS011;22291;52.250;21.228;2022-09-28T02:37:59;4.03;;;1.80;;
36253;SDS011;22291;52.250;21.228;2022-09-28T02:40:28;3.58;;;2.62;;
36253;SDS011;22291;52.250;21.228;2022-09-28T02:43:14;2.62;;;1.90;;
36253;SDS011;22291;52.250;21.228;2022-09-28T02:46:10;2.67;;;1.77;;
36253;SDS011;22291;52.250;21.228;2022-09-28T02:49:02;3.70;;;2.27;;
36253;SDS011;22291;52.250;21.228;2022-09-28T02:51:37;2.83;;;2.10;;
36253;SDS011;22291;52.250;21.228;2022-09-28T02:57:27;3.30;;;1.67;;
36253;SDS011;22291;52.250;21.228;2022-09-28T03:02:39;4.35;;;1.80;;
36253;SDS011;22291;52.250;21.228;2022-09-28T03:11:12;3.30;;;2.62;;
36253;SDS011;22291;52.250;21.228;2022-09-28T03:13:43;4.45;;;2.90;;
36253;SDS011;22291;52.250;21.228;2022-09-28T03:16:11;4.85;;;2.92;;
36253;SDS011;22291;52.250;21.228;2022-09-28T03:18:41;3.70;;;2.98;;
36253;SDS011;22291;52.250;21.228;2022-09-28T03:21:08;4.72;;;2.87;;
36253;SDS011;22291;52.250;21.228;2022-09-28T03:23:37;5.28;;;2.77;;
36253;SDS011;22291;52.250;21.228;2022-09-28T03:26:11;4.90;;;2.50;;
36253;SDS011;22291;52.250;21.228;2022-09-28T03:28:38;6.10;;;2.80;;
36253;SDS011;22291;52.250;21.228;2022-09-28T03:31:05;4.45;;;2.85;;
36253;SDS011;22291;52.250;21.228;2022-09-28T03:33:32;3.15;;;2.22;;
36253;SDS011;22291;52.250;21.228;2022-09-28T03:35:58;3.47;;;2.47;;
36253;SDS011;22291;52.250;21.228;2022-09-28T03:38:25;4.05;;;2.50;;
36253;SDS011;22291;52.250;21.228;2022-09-28T03:40:52;5.67;;;2.52;;
36253;SDS011;22291;52.250;21.228;2022-09-28T03:43:24;4.50;;;2.75;;
36253;SDS011;22291;52.250;21.228;2022-09-28T03:45:56;3.33;;;2.12;;
36253;SDS011;22291;52.250;21.228;2022-09-28T03:48:29;4.25;;;2.55;;
36253;SDS011;22291;52.250;21.228;2022-09-28T03:50:56;4.62;;;2.33;;
36253;SDS011;22291;52.250;21.228;2022-09-28T03:53:25;7.55;;;2.72;;
36253;SDS011;22291;52.250;21.228;2022-09-28T03:55:53;2.47;;;2.17;;
36253;SDS011;22291;52.250;21.228;2022-09-28T03:58:21;5.12;;;2.75;;
36253;SDS011;22291;52.250;21.228;2022-09-28T04:00:48;4.22;;;2.58;;
36253;SDS011;22291;52.250;21.228;2022-09-28T04:03:15;5.28;;;2.70;;
36253;SDS011;22291;52.250;21.228;2022-09-28T04:05:52;4.17;;;2.70;;
36253;SDS011;22291;52.250;21.228;2022-09-28T04:08:17;3.58;;;2.62;;
36253;SDS011;22291;52.250;21.228;2022-09-28T04:10:44;3.98;;;2.20;;
36253;SDS011;22291;52.250;21.228;2022-09-28T04:13:12;5.20;;;2.55;;
36253;SDS011;22291;52.250;21.228;2022-09-28T04:15:38;3.95;;;2.72;;
36253;SDS011;22291;52.250;21.228;2022-09-28T04:18:08;2.90;;;2.45;;
36253;SDS011;22291;52.250;21.228;2022-09-28T04:20:36;4.30;;;2.67;;
36253;SDS011;22291;52.250;21.228;2022-09-28T04:23:04;3.87;;;2.60;;
36253;SDS011;22291;52.250;21.228;2022-09-28T04:25:30;4.45;;;3.22;;
36253;SDS011;22291;52.250;21.228;2022-09-28T04:27:58;5.42;;;3.10;;
36253;SDS011;22291;52.250;21.228;2022-09-28T04:30:43;5.72;;;3.10;;
36253;SDS011;22291;52.250;21.228;2022-09-28T04:33:13;4.28;;;3.00;;
36253;SDS011;22291;52.250;21.228;2022-09-28T04:35:40;6.20;;;3.50;;
36253;SDS011;22291;52.250;21.228;2022-09-28T04:38:06;5.53;;;3.87;;
36253;SDS011;22291;52.250;21.228;2022-09-28T04:40:32;7.08;;;4.40;;
36253;SDS011;22291;52.250;21.228;2022-09-28T04:42:58;6.65;;;4.85;;
36253;SDS011;22291;52.250;21.228;2022-09-28T04:45:24;7.67;;;5.35;;
36253;SDS011;22291;52.250;21.228;2022-09-28T04:47:51;10.05;;;5.95;;
36253;SDS011;22291;52.250;21.228;2022-09-28T04:50:18;10.82;;;6.40;;
36253;SDS011;22291;52.250;21.228;2022-09-28T04:52:46;13.55;;;7.42;;
36253;SDS011;22291;52.250;21.228;2022-09-28T04:55:13;12.75;;;7.42;;
36253;SDS011;22291;52.250;21.228;2022-09-28T04:57:39;12.37;;;8.08;;
36253;SDS011;22291;52.250;21.228;2022-09-28T05:00:06;15.03;;;9.50;;
36253;SDS011;22291;52.250;21.228;2022-09-28T05:02:35;14.30;;;9.18;;
36253;SDS011;22291;52.250;21.228;2022-09-28T05:05:01;18.40;;;10.90;;
36253;SDS011;22291;52.250;21.228;2022-09-28T05:07:29;17.70;;;11.65;;
36253;SDS011;22291;52.250;21.228;2022-09-28T05:09:55;22.13;;;13.18;;
36253;SDS011;22291;52.250;21.228;2022-09-28T05:12:21;25.02;;;13.13;;
36253;SDS011;22291;52.250;21.228;2022-09-28T05:14:50;25.57;;;12.40;;
36253;SDS011;22291;52.250;21.228;2022-09-28T05:17:16;22.17;;;13.62;;
36253;SDS011;22291;52.250;21.228;2022-09-28T05:19:42;19.60;;;12.98;;
36253;SDS011;22291;52.250;21.228;2022-09-28T05:22:08;26.82;;;14.73;;
36253;SDS011;22291;52.250;21.228;2022-09-28T05:24:36;21.45;;;13.75;;
36253;SDS011;22291;52.250;21.228;2022-09-28T05:27:02;21.33;;;13.83;;
36253;SDS011;22291;52.250;21.228;2022-09-28T05:29:31;22.50;;;14.57;;
36253;SDS011;22291;52.250;21.228;2022-09-28T05:31:57;28.27;;;15.98;;
36253;SDS011;22291;52.250;21.228;2022-09-28T05:34:25;23.87;;;15.35;;
36253;SDS011;22291;52.250;21.228;2022-09-28T05:36:52;25.37;;;14.63;;
36253;SDS011;22291;52.250;21.228;2022-09-28T05:39:18;26.57;;;14.13;;
36253;SDS011;22291;52.250;21.228;2022-09-28T05:41:44;19.67;;;13.18;;
36253;SDS011;22291;52.250;21.228;2022-09-28T05:44:10;22.95;;;14.25;;
36253;SDS011;22291;52.250;21.228;2022-09-28T05:46:36;26.68;;;14.87;;
36253;SDS011;22291;52.250;21.228;2022-09-28T05:49:02;25.20;;;15.25;;
36253;SDS011;22291;52.250;21.228;2022-09-28T05:51:29;23.77;;;13.62;;
36253;SDS011;22291;52.250;21.228;2022-09-28T05:53:55;22.35;;;13.98;;
36253;SDS011;22291;52.250;21.228;2022-09-28T05:56:21;23.10;;;14.50;;
36253;SDS011;22291;52.250;21.228;2022-09-28T05:58:47;27.02;;;14.40;;
36253;SDS011;22291;52.250;21.228;2022-09-28T06:01:14;19.77;;;13.65;;
36253;SDS011;22291;52.250;21.228;2022-09-28T06:03:40;21.07;;;13.65;;
36253;SDS011;22291;52.250;21.228;2022-09-28T06:06:06;21.33;;;13.20;;
36253;SDS011;22291;52.250;21.228;2022-09-28T06:08:33;20.23;;;13.05;;
36253;SDS011;22291;52.250;21.228;2022-09-28T06:10:59;19.80;;;11.97;;
36253;SDS011;22291;52.250;21.228;2022-09-28T06:13:27;26.05;;;14.68;;
36253;SDS011;22291;52.250;21.228;2022-09-28T06:15:54;19.48;;;12.90;;
36253;SDS011;22291;52.250;21.228;2022-09-28T06:18:20;20.55;;;12.60;;
36253;SDS011;22291;52.250;21.228;2022-09-28T06:20:46;22.52;;;13.48;;
36253;SDS011;22291;52.250;21.228;2022-09-28T06:23:12;24.70;;;13.22;;
36253;SDS011;22291;52.250;21.228;2022-09-28T06:25:39;21.73;;;13.65;;
36253;SDS011;22291;52.250;21.228;2022-09-28T06:28:08;22.37;;;12.93;;
36253;SDS011;22291;52.250;21.228;2022-09-28T06:30:37;21.57;;;13.90;;
36253;SDS011;22291;52.250;21.228;2022-09-28T06:33:05;22.73;;;14.50;;
36253;SDS011;22291;52.250;21.228;2022-09-28T06:35:33;21.57;;;13.40;;
36253;SDS011;22291;52.250;21.228;2022-09-28T06:38:00;18.50;;;12.43;;
36253;SDS011;22291;52.250;21.228;2022-09-28T06:40:27;21.10;;;12.88;;
36253;SDS011;22291;52.250;21.228;2022-09-28T06:42:54;23.30;;;12.80;;
36253;SDS011;22291;52.250;21.228;2022-09-28T06:45:35;18.30;;;12.65;;
36253;SDS011;22291;52.250;21.228;2022-09-28T06:48:03;21.87;;;12.95;;
36253;SDS011;22291;52.250;21.228;2022-09-28T06:50:32;21.25;;;13.28;;
36253;SDS011;22291;52.250;21.228;2022-09-28T06:53:03;21.60;;;12.78;;
36253;SDS011;22291;52.250;21.228;2022-09-28T06:55:31;20.07;;;13.23;;
36253;SDS011;22291;52.250;21.228;2022-09-28T06:57:59;18.70;;;12.25;;
36253;SDS011;22291;52.250;21.228;2022-09-28T07:00:29;21.97;;;12.80;;
36253;SDS011;22291;52.250;21.228;2022-09-28T07:02:59;22.45;;;13.32;;
36253;SDS011;22291;52.250;21.228;2022-09-28T07:05:30;18.80;;;12.15;;
36253;SDS011;22291;52.250;21.228;2022-09-28T07:08:02;18.15;;;13.00;;
36253;SDS011;22291;52.250;21.228;2022-09-28T07:10:30;23.38;;;13.22;;
36253;SDS011;22291;52.250;21.228;2022-09-28T07:12:58;20.97;;;13.15;;
36253;SDS011;22291;52.250;21.228;2022-09-28T07:15:27;23.12;;;13.58;;
36253;SDS011;22291;52.250;21.228;2022-09-28T07:17:56;23.62;;;13.78;;
36253;SDS011;22291;52.250;21.228;2022-09-28T07:20:25;22.97;;;14.60;;
36253;SDS011;22291;52.250;21.228;2022-09-28T07:22:53;24.50;;;15.10;;
36253;SDS011;22291;52.250;21.228;2022-09-28T07:25:22;20.72;;;14.28;;
36253;SDS011;22291;52.250;21.228;2022-09-28T07:27:55;25.90;;;15.30;;
36253;SDS011;22291;52.250;21.228;2022-09-28T07:30:24;21.87;;;13.88;;
36253;SDS011;22291;52.250;21.228;2022-09-28T07:32:52;22.35;;;14.10;;
36253;SDS011;22291;52.250;21.228;2022-09-28T07:35:20;20.50;;;14.23;;
36253;SDS011;22291;52.250;21.228;2022-09-28T07:37:46;21.93;;;13.85;;
36253;SDS011;22291;52.250;21.228;2022-09-28T07:40:13;19.98;;;13.85;;
36253;SDS011;22291;52.250;21.228;2022-09-28T07:43:04;23.83;;;14.23;;
36253;SDS011;22291;52.250;21.228;2022-09-28T07:45:31;21.30;;;13.58;;
36253;SDS011;22291;52.250;21.228;2022-09-28T07:48:01;20.57;;;14.15;;
36253;SDS011;22291;52.250;21.228;2022-09-28T07:50:28;21.02;;;14.80;;
36253;SDS011;22291;52.250;21.228;2022-09-28T07:52:55;20.95;;;14.10;;
36253;SDS011;22291;52.250;21.228;2022-09-28T07:55:22;21.30;;;14.43;;
36253;SDS011;22291;52.250;21.228;2022-09-28T07:57:54;20.88;;;14.40;;
36253;SDS011;22291;52.250;21.228;2022-09-28T08:00:24;23.80;;;13.72;;
36253;SDS011;22291;52.250;21.228;2022-09-28T08:02:51;20.23;;;12.78;;
36253;SDS011;22291;52.250;21.228;2022-09-28T08:05:18;17.32;;;12.05;;
36253;SDS011;22291;52.250;21.228;2022-09-28T08:07:44;17.73;;;12.33;;
36253;SDS011;22291;52.250;21.228;2022-09-28T08:10:10;18.20;;;12.25;;
36253;SDS011;22291;52.250;21.228;2022-09-28T08:12:37;17.42;;;12.82;;
36253;SDS011;22291;52.250;21.228;2022-09-28T08:15:05;18.75;;;12.13;;
36253;SDS011;22291;52.250;21.228;2022-09-28T08:17:34;15.43;;;11.78;;
36253;SDS011;22291;52.250;21.228;2022-09-28T08:20:02;15.53;;;11.48;;
36253;SDS011;22291;52.250;21.228;2022-09-28T08:22:47;14.18;;;11.08;;
36253;SDS011;22291;52.250;21.228;2022-09-28T08:25:14;16.30;;;11.03;;
36253;SDS011;22291;52.250;21.228;2022-09-28T08:27:40;16.62;;;12.23;;
36253;SDS011;22291;52.250;21.228;2022-09-28T08:30:07;17.95;;;11.97;;
36253;SDS011;22291;52.250;21.228;2022-09-28T08:32:35;16.10;;;10.70;;
36253;SDS011;22291;52.250;21.228;2022-09-28T08:35:01;15.68;;;10.70;;
36253;SDS011;22291;52.250;21.228;2022-09-28T08:37:27;11.28;;;8.68;;
36253;SDS011;22291;52.250;21.228;2022-09-28T08:39:53;18.48;;;14.43;;
36253;SDS011;22291;52.250;21.228;2022-09-28T08:42:28;15.28;;;9.95;;
36253;SDS011;22291;52.250;21.228;2022-09-28T08:45:13;11.18;;;8.95;;
36253;SDS011;22291;52.250;21.228;2022-09-28T08:47:50;10.85;;;9.75;;
36253;SDS011;22291;52.250;21.228;2022-09-28T08:50:53;14.70;;;9.40;;
36253;SDS011;22291;52.250;21.228;2022-09-28T08:53:33;11.57;;;8.93;;
36253;SDS011;22291;52.250;21.228;2022-09-28T08:56:17;11.63;;;9.03;;
36253;SDS011;22291;52.250;21.228;2022-09-28T08:58:44;10.95;;;8.60;;
36253;SDS011;22291;52.250;21.228;2022-09-28T09:01:16;13.20;;;8.90;;
36253;SDS011;22291;52.250;21.228;2022-09-28T09:03:44;8.38;;;7.50;;
36253;SDS011;22291;52.250;21.228;2022-09-28T09:08:49;11.48;;;8.70;;
36253;SDS011;22291;52.250;21.228;2022-09-28T09:14:10;10.90;;;6.17;;
36253;SDS011;22291;52.250;21.228;2022-09-28T09:17:00;8.38;;;6.75;;
36253;SDS011;22291;52.250;21.228;2022-09-28T09:19:54;8.23;;;6.12;;
36253;SDS011;22291;52.250;21.228;2022-09-28T09:25:25;11.45;;;5.47;;
36253;SDS011;22291;52.250;21.228;2022-09-28T09:45:26;6.28;;;4.65;;
36253;SDS011;22291;52.250;21.228;2022-09-28T09:47:43;5.05;;;4.33;;
36253;SDS011;22291;52.250;21.228;2022-09-28T09:50:29;6.25;;;4.47;;
36253;SDS011;22291;52.250;21.228;2022-09-28T09:56:03;5.78;;;4.17;;
36253;SDS011;22291;52.250;21.228;2022-09-28T09:58:40;5.67;;;4.15;;
36253;SDS011;22291;52.250;21.228;2022-09-28T10:01:13;11.60;;;4.75;;
36253;SDS011;22291;52.250;21.228;2022-09-28T10:03:44;8.13;;;4.62;;
36253;SDS011;22291;52.250;21.228;2022-09-28T10:06:25;7.40;;;4.37;;
36253;SDS011;22291;52.250;21.228;2022-09-28T10:09:09;5.72;;;4.15;;
36253;SDS011;22291;52.250;21.228;2022-09-28T10:11:44;5.87;;;4.42;;
36253;SDS011;22291;52.250;21.228;2022-09-28T10:14:17;5.75;;;4.03;;
36253;SDS011;22291;52.250;21.228;2022-09-28T10:16:51;4.15;;;3.75;;
36253;SDS011;22291;52.250;21.228;2022-09-28T10:19:18;6.42;;;3.70;;
36253;SDS011;22291;52.250;21.228;2022-09-28T10:21:48;14.53;;;6.53;;
36253;SDS011;22291;52.250;21.228;2022-09-28T10:24:27;4.15;;;3.65;;
36253;SDS011;22291;52.250;21.228;2022-09-28T10:26:58;4.53;;;3.55;;
36253;SDS011;22291;52.250;21.228;2022-09-28T10:29:39;5.05;;;3.30;;
36253;SDS011;22291;52.250;21.228;2022-09-28T10:32:18;3.98;;;3.22;;
36253;SDS011;22291;52.250;21.228;2022-09-28T10:34:51;5.08;;;3.50;;
36253;SDS011;22291;52.250;21.228;2022-09-28T10:37:19;2.87;;;2.67;;
36253;SDS011;22291;52.250;21.228;2022-09-28T10:42:29;8.08;;;2.95;;
36253;SDS011;22291;52.250;21.228;2022-09-28T10:44:55;2.92;;;2.60;;
36253;SDS011;22291;52.250;21.228;2022-09-28T10:47:31;3.10;;;2.58;;
36253;SDS011;22291;52.250;21.228;2022-09-28T10:50:00;5.77;;;3.70;;
36253;SDS011;22291;52.250;21.228;2022-09-28T10:52:45;2.87;;;2.52;;
36253;SDS011;22291;52.250;21.228;2022-09-28T10:55:01;5.05;;;2.75;;
36253;SDS011;22291;52.250;21.228;2022-09-28T10:57:34;3.05;;;2.55;;
36253;SDS011;22291;52.250;21.228;2022-09-28T11:00:02;4.45;;;3.92;;
36253;SDS011;22291;52.250;21.228;2022-09-28T11:02:35;4.45;;;4.05;;
36253;SDS011;22291;52.250;21.228;2022-09-28T11:05:04;6.15;;;4.92;;
36253;SDS011;22291;52.250;21.228;2022-09-28T11:07:33;6.22;;;4.97;;
36253;SDS011;22291;52.250;21.228;2022-09-28T11:10:21;7.10;;;3.80;;
36253;SDS011;22291;52.250;21.228;2022-09-28T11:12:51;5.83;;;3.15;;
36253;SDS011;22291;52.250;21.228;2022-09-28T11:15:20;6.03;;;5.40;;
36253;SDS011;22291;52.250;21.228;2022-09-28T11:17:53;4.78;;;4.35;;
36253;SDS011;22291;52.250;21.228;2022-09-28T11:22:55;8.35;;;7.58;;
36253;SDS011;22291;52.250;21.228;2022-09-28T11:26:03;4.58;;;2.83;;
36253;SDS011;22291;52.250;21.228;2022-09-28T11:28:32;5.33;;;4.40;;
36253;SDS011;22291;52.250;21.228;2022-09-28T11:31:01;7.35;;;6.75;;
36253;SDS011;22291;52.250;21.228;2022-09-28T11:38:52;6.35;;;5.80;;
36253;SDS011;22291;52.250;21.228;2022-09-28T11:41:41;8.03;;;4.15;;
36253;SDS011;22291;52.250;21.228;2022-09-28T11:44:39;3.47;;;2.52;;
36253;SDS011;22291;52.250;21.228;2022-09-28T11:53:19;4.40;;;1.80;;
36253;SDS011;22291;52.250;21.228;2022-09-28T11:58:34;57.78;;;54.63;;
36253;SDS011;22291;52.250;21.228;2022-09-28T12:07:07;2.62;;;1.85;;
36253;SDS011;22291;52.250;21.228;2022-09-28T12:09:42;6.33;;;2.47;;
36253;SDS011;22291;52.250;21.228;2022-09-28T12:12:17;2.98;;;1.80;;
36253;SDS011;22291;52.250;21.228;2022-09-28T12:15:18;6.20;;;1.37;;
36253;SDS011;22291;52.250;21.228;2022-09-28T12:17:53;3.00;;;2.00;;
36253;SDS011;22291;52.250;21.228;2022-09-28T12:20:29;2.65;;;1.37;;
36253;SDS011;22291;52.250;21.228;2022-09-28T12:25:43;4.28;;;1.47;;
36253;SDS011;22291;52.250;21.228;2022-09-28T12:28:58;3.20;;;2.98;;
36253;SDS011;22291;52.250;21.228;2022-09-28T12:31:19;4.00;;;1.60;;
36253;SDS011;22291;52.250;21.228;2022-09-28T12:34:20;3.15;;;1.70;;
36253;SDS011;22291;52.250;21.228;2022-09-28T12:48:59;6.03;;;4.15;;
36253;SDS011;22291;52.250;21.228;2022-09-28T12:51:52;3.25;;;2.92;;
36253;SDS011;22291;52.250;21.228;2022-09-28T13:00:20;3.55;;;3.25;;
36253;SDS011;22291;52.250;21.228;2022-09-28T13:11:36;2.22;;;1.52;;
36253;SDS011;22291;52.250;21.228;2022-09-28T13:14:19;1.55;;;1.45;;
36253;SDS011;22291;52.250;21.228;2022-09-28T13:17:23;2.20;;;1.75;;
36253;SDS011;22291;52.250;21.228;2022-09-28T13:25:48;3.60;;;1.27;;
36253;SDS011;22291;52.250;21.228;2022-09-28T13:28:22;3.33;;;1.30;;
36253;SDS011;22291;52.250;21.228;2022-09-28T13:30:51;1.70;;;1.60;;
36253;SDS011;22291;52.250;21.228;2022-09-28T13:33:27;1.55;;;1.17;;
36253;SDS011;22291;52.250;21.228;2022-09-28T13:35:55;2.42;;;1.25;;
36253;SDS011;22291;52.250;21.228;2022-09-28T13:49:43;2.92;;;1.42;;
36253;SDS011;22291;52.250;21.228;2022-09-28T13:52:43;2.00;;;1.40;;
36253;SDS011;22291;52.250;21.228;2022-09-28T13:58:01;1.67;;;1.40;;
36253;SDS011;22291;52.250;21.228;2022-09-28T14:03:40;7.00;;;2.17;;
36253;SDS011;22291;52.250;21.228;2022-09-28T14:06:31;5.90;;;2.20;;
36253;SDS011;22291;52.250;21.228;2022-09-28T14:11:59;2.02;;;1.80;;
36253;SDS011;22291;52.250;21.228;2022-09-28T14:14:44;6.07;;;1.80;;
36253;SDS011;22291;52.250;21.228;2022-09-28T14:19:54;1.67;;;1.32;;
36253;SDS011;22291;52.250;21.228;2022-09-28T14:25:15;3.37;;;2.22;;
36253;SDS011;22291;52.250;21.228;2022-09-28T14:30:48;2.12;;;1.75;;
36253;SDS011;22291;52.250;21.228;2022-09-28T14:33:29;2.72;;;1.90;;
36253;SDS011;22291;52.250;21.228;2022-09-28T14:36:02;2.37;;;2.15;;
36253;SDS011;22291;52.250;21.228;2022-09-28T14:38:33;3.72;;;2.02;;
36253;SDS011;22291;52.250;21.228;2022-09-28T14:41:32;3.00;;;2.12;;
36253;SDS011;22291;52.250;21.228;2022-09-28T14:44:06;2.60;;;1.77;;
36253;SDS011;22291;52.250;21.228;2022-09-28T14:54:26;2.77;;;2.17;;
36253;SDS011;22291;52.250;21.228;2022-09-28T14:57:22;2.55;;;2.33;;
36253;SDS011;22291;52.250;21.228;2022-09-28T14:59:50;2.15;;;1.95;;
36253;SDS011;22291;52.250;21.228;2022-09-28T15:02:23;4.45;;;1.87;;
36253;SDS011;22291;52.250;21.228;2022-09-28T15:04:59;2.08;;;1.90;;
36253;SDS011;22291;52.250;21.228;2022-09-28T15:07:44;4.08;;;2.00;;
36253;SDS011;22291;52.250;21.228;2022-09-28T15:10:35;3.75;;;1.92;;
36253;SDS011;22291;52.250;21.228;2022-09-28T15:13:02;3.58;;;2.02;;
36253;SDS011;22291;52.250;21.228;2022-09-28T15:15:31;5.05;;;2.30;;
36253;SDS011;22291;52.250;21.228;2022-09-28T15:18:07;3.67;;;2.12;;
36253;SDS011;22291;52.250;21.228;2022-09-28T15:20:43;3.98;;;2.00;;
36253;SDS011;22291;52.250;21.228;2022-09-28T15:23:22;6.97;;;1.95;;
36253;SDS011;22291;52.250;21.228;2022-09-28T15:25:52;4.33;;;2.37;;
36253;SDS011;22291;52.250;21.228;2022-09-28T15:28:21;3.83;;;2.87;;
36253;SDS011;22291;52.250;21.228;2022-09-28T15:30:49;4.20;;;2.47;;
36253;SDS011;22291;52.250;21.228;2022-09-28T15:33:22;20.65;;;5.40;;
36253;SDS011;22291;52.250;21.228;2022-09-28T15:38:53;3.62;;;2.90;;
36253;SDS011;22291;52.250;21.228;2022-09-28T15:41:29;7.58;;;3.85;;
36253;SDS011;22291;52.250;21.228;2022-09-28T15:44:06;6.22;;;4.22;;
36253;SDS011;22291;52.250;21.228;2022-09-28T15:47:02;4.47;;;3.37;;
36253;SDS011;22291;52.250;21.228;2022-09-28T15:49:51;4.40;;;2.90;;
36253;SDS011;22291;52.250;21.228;2022-09-28T15:52:31;3.45;;;2.70;;
36253;SDS011;22291;52.250;21.228;2022-09-28T15:55:19;8.65;;;3.87;;
36253;SDS011;22291;52.250;21.228;2022-09-28T15:57:49;3.72;;;2.90;;
36253;SDS011;22291;52.250;21.228;2022-09-28T16:00:29;5.25;;;3.25;;
36253;SDS011;22291;52.250;21.228;2022-09-28T16:05:36;15.88;;;14.60;;
36253;SDS011;22291;52.250;21.228;2022-09-28T16:08:22;7.15;;;3.00;;
36253;SDS011;22291;52.250;21.228;2022-09-28T16:16:37;6.28;;;4.45;;
36253;SDS011;22291;52.250;21.228;2022-09-28T16:19:29;13.85;;;7.60;;
36253;SDS011;22291;52.250;21.228;2022-09-28T16:22:02;9.93;;;6.15;;
36253;SDS011;22291;52.250;21.228;2022-09-28T16:24:33;6.17;;;4.08;;
36253;SDS011;22291;52.250;21.228;2022-09-28T16:27:05;10.43;;;5.70;;
36253;SDS011;22291;52.250;21.228;2022-09-28T16:29:35;7.58;;;6.87;;
36253;SDS011;22291;52.250;21.228;2022-09-28T16:32:26;45.85;;;42.73;;
36253;SDS011;22291;52.250;21.228;2022-09-28T16:37:48;14.10;;;12.65;;
36253;SDS011;22291;52.250;21.228;2022-09-28T16:40:25;14.95;;;7.10;;
36253;SDS011;22291;52.250;21.228;2022-09-28T16:42:53;9.98;;;5.75;;
36253;SDS011;22291;52.250;21.228;2022-09-28T16:45:23;8.40;;;5.85;;
36253;SDS011;22291;52.250;21.228;2022-09-28T16:47:49;11.40;;;5.72;;
36253;SDS011;22291;52.250;21.228;2022-09-28T16:50:17;13.48;;;6.97;;
36253;SDS011;22291;52.250;21.228;2022-09-28T16:52:46;18.30;;;8.20;;
36253;SDS011;22291;52.250;21.228;2022-09-28T16:55:48;17.50;;;8.58;;
36253;SDS011;22291;52.250;21.228;2022-09-28T16:58:15;15.05;;;7.85;;
36253;SDS011;22291;52.250;21.228;2022-09-28T17:00:41;15.28;;;7.05;;
36253;SDS011;22291;52.250;21.228;2022-09-28T17:03:15;16.62;;;7.75;;
36253;SDS011;22291;52.250;21.228;2022-09-28T17:05:45;14.15;;;7.90;;
36253;SDS011;22291;52.250;21.228;2022-09-28T17:08:13;13.50;;;7.85;;
36253;SDS011;22291;52.250;21.228;2022-09-28T17:10:45;15.68;;;7.33;;
36253;SDS011;22291;52.250;21.228;2022-09-28T17:13:19;15.45;;;7.17;;
36253;SDS011;22291;52.250;21.228;2022-09-28T17:15:55;14.15;;;8.23;;
36253;SDS011;22291;52.250;21.228;2022-09-28T17:18:22;19.45;;;10.63;;
36253;SDS011;22291;52.250;21.228;2022-09-28T17:20:49;15.68;;;10.03;;
36253;SDS011;22291;52.250;21.228;2022-09-28T17:23:18;18.98;;;9.80;;
36253;SDS011;22291;52.250;21.228;2022-09-28T17:25:45;13.53;;;8.68;;
36253;SDS011;22291;52.250;21.228;2022-09-28T17:28:16;14.75;;;9.33;;
36253;SDS011;22291;52.250;21.228;2022-09-28T17:30:47;17.30;;;8.18;;
36253;SDS011;22291;52.250;21.228;2022-09-28T17:33:13;13.03;;;8.05;;
36253;SDS011;22291;52.250;21.228;2022-09-28T17:35:40;16.75;;;8.75;;
36253;SDS011;22291;52.250;21.228;2022-09-28T17:38:09;14.00;;;9.03;;